createdAt,value
2023-01-28T00:01:07.887Z,6.00
2023-01-28T00:03:09.525Z,6.90
2023-01-28T00:05:11.194Z,6.88
2023-01-28T00:07:12.968Z,6.38
2023-01-28T00:09:14.729Z,6.55
2023-01-28T00:11:16.299Z,6.18
2023-01-28T00:13:17.886Z,6.40
2023-01-28T00:15:19.455Z,6.25
2023-01-28T00:17:21.047Z,6.65
2023-01-28T00:19:23.522Z,6.88
2023-01-28T00:21:25.121Z,6.80
2023-01-28T00:23:28.517Z,6.97
2023-01-28T00:25:31.192Z,6.35
2023-01-28T00:27:32.924Z,6.60
2023-01-28T00:29:34.456Z,6.30
2023-01-28T00:31:38.001Z,6.80
2023-01-28T00:33:39.971Z,6.00
2023-01-28T00:35:41.668Z,6.35
2023-01-28T00:37:46.280Z,6.47
2023-01-28T00:39:47.881Z,6.65
2023-01-28T00:41:49.492Z,6.35
2023-01-28T00:43:51.856Z,6.40
2023-01-28T00:45:53.429Z,7.03
2023-01-28T00:47:55.101Z,7.22
2023-01-28T00:49:56.998Z,6.45
2023-01-28T00:51:58.594Z,7.07
2023-01-28T00:54:00.195Z,6.93
2023-01-28T00:56:02.727Z,7.07
2023-01-28T00:58:04.312Z,6.65
2023-01-28T01:00:06.792Z,6.88
2023-01-28T01:02:14.211Z,7.30
2023-01-28T01:04:26.894Z,6.78
2023-01-28T01:06:31.161Z,7.40
2023-01-28T01:08:35.976Z,7.10
2023-01-28T01:10:38.605Z,7.38
2023-01-28T01:12:40.435Z,6.70
2023-01-28T01:14:42.096Z,6.80
2023-01-28T01:16:43.658Z,6.70
2023-01-28T01:18:45.417Z,7.30
2023-01-28T01:20:47.016Z,7.70
2023-01-28T01:22:48.896Z,7.22
2023-01-28T01:24:50.467Z,7.03
2023-01-28T01:26:52.327Z,7.30
2023-01-28T01:28:54.210Z,6.63
2023-01-28T01:31:09.311Z,8.00
2023-01-28T01:33:10.880Z,7.20
2023-01-28T01:35:12.806Z,7.38
2023-01-28T01:37:15.019Z,7.47
2023-01-28T01:39:16.861Z,7.30
2023-01-28T01:41:27.864Z,6.82
2023-01-28T01:43:48.852Z,7.20
2023-01-28T01:45:59.730Z,6.75
2023-01-28T01:48:06.360Z,7.40
2023-01-28T01:50:24.597Z,7.28
2023-01-28T01:52:28.790Z,7.05
2023-01-28T01:54:31.067Z,6.97
2023-01-28T01:56:37.211Z,7.35
2023-01-28T01:58:41.595Z,6.13
2023-01-28T02:00:43.501Z,6.45
2023-01-28T02:02:47.920Z,7.15
2023-01-28T02:04:49.633Z,6.75
2023-01-28T02:06:52.320Z,7.13
2023-01-28T02:08:55.866Z,6.35
2023-01-28T02:11:06.311Z,6.55
2023-01-28T02:13:08.178Z,6.70
2023-01-28T02:15:13.934Z,6.45
2023-01-28T02:17:16.269Z,6.13
2023-01-28T02:19:20.082Z,6.82
2023-01-28T02:22:03.255Z,6.20
2023-01-28T02:24:23.531Z,7.03
2023-01-28T02:26:42.473Z,6.38
2023-01-28T02:29:07.114Z,7.13
2023-01-28T02:33:40.947Z,7.05
2023-01-28T02:35:52.995Z,7.35
2023-01-28T02:37:59.643Z,7.47
2023-01-28T02:40:13.849Z,6.97
2023-01-28T02:42:21.825Z,7.25
2023-01-28T02:44:24.125Z,6.85
2023-01-28T02:46:44.014Z,6.78
2023-01-28T02:48:47.024Z,6.20
2023-01-28T02:51:17.081Z,6.90
2023-01-28T02:53:55.645Z,6.13
2023-01-28T02:55:57.211Z,7.07
2023-01-28T02:58:21.816Z,7.47
2023-01-28T03:00:54.509Z,6.60
2023-01-28T03:03:25.857Z,6.25
2023-01-28T03:05:31.871Z,7.07
2023-01-28T03:07:36.053Z,6.55
2023-01-28T03:09:39.812Z,6.30
2023-01-28T03:12:07.700Z,7.03
2023-01-28T03:14:28.526Z,6.43
2023-01-28T03:16:48.762Z,6.88
2023-01-28T03:19:10.874Z,7.47
2023-01-28T03:21:39.328Z,6.80
2023-01-28T03:24:22.812Z,6.97
2023-01-28T03:26:43.597Z,6.40
2023-01-28T03:29:05.707Z,6.82
2023-01-28T03:31:32.578Z,6.65
2023-01-28T03:33:52.998Z,6.47
2023-01-28T03:36:13.160Z,7.57
2023-01-28T03:38:23.007Z,6.70
2023-01-28T03:40:24.669Z,7.38
2023-01-28T03:42:26.264Z,6.57
2023-01-28T03:44:46.755Z,6.82
2023-01-28T03:46:49.057Z,6.47
2023-01-28T03:48:50.788Z,6.43
2023-01-28T03:50:52.787Z,6.88
2023-01-28T03:52:54.424Z,7.22
2023-01-28T03:54:56.539Z,7.10
2023-01-28T03:56:58.144Z,6.60
2023-01-28T03:58:59.738Z,6.78
2023-01-28T04:01:01.422Z,6.05
2023-01-28T04:03:03.275Z,7.30
2023-01-28T04:05:07.121Z,6.80
2023-01-28T04:09:10.712Z,7.28
2023-01-28T04:11:19.957Z,6.72
2023-01-28T04:13:21.824Z,6.78
2023-01-28T04:15:24.137Z,6.82
2023-01-28T04:17:25.803Z,6.38
2023-01-28T04:19:28.257Z,6.70
2023-01-28T04:21:29.942Z,6.13
2023-01-28T04:23:31.751Z,6.95
2023-01-28T04:25:33.503Z,6.05
2023-01-28T04:27:35.197Z,6.50
2023-01-28T04:29:36.864Z,6.70
2023-01-28T04:31:38.607Z,7.82
2023-01-28T04:33:40.235Z,7.18
2023-01-28T04:35:41.874Z,6.18
2023-01-28T04:37:43.849Z,6.53
2023-01-28T04:39:45.421Z,7.07
2023-01-28T04:41:47.036Z,7.07
2023-01-28T04:43:49.325Z,6.50
2023-01-28T04:45:50.995Z,7.30
2023-01-28T04:47:52.559Z,6.85
2023-01-28T04:49:54.346Z,6.05
2023-01-28T04:51:55.962Z,6.22
2023-01-28T04:53:57.514Z,6.13
2023-01-28T04:55:59.390Z,6.10
2023-01-28T04:58:01.000Z,6.60
2023-01-28T05:00:02.640Z,6.22
2023-01-28T05:02:04.332Z,6.68
2023-01-28T05:04:06.087Z,6.45
2023-01-28T05:06:07.900Z,6.25
2023-01-28T05:08:09.518Z,6.35
2023-01-28T05:10:11.299Z,6.57
2023-01-28T05:12:12.945Z,6.57
2023-01-28T05:14:14.573Z,6.57
2023-01-28T05:16:16.203Z,6.80
2023-01-28T05:18:17.798Z,6.10
2023-01-28T05:20:19.394Z,7.63
2023-01-28T05:22:21.008Z,6.50
2023-01-28T05:24:22.727Z,7.57
2023-01-28T05:26:24.581Z,6.88
2023-01-28T05:28:26.131Z,7.30
2023-01-28T05:30:27.851Z,6.47
2023-01-28T05:32:29.474Z,6.85
2023-01-28T05:34:31.105Z,7.15
2023-01-28T05:36:32.812Z,8.45
2023-01-28T05:38:34.462Z,7.75
2023-01-28T05:40:36.055Z,7.13
2023-01-28T05:42:37.709Z,7.22
2023-01-28T05:44:39.572Z,7.18
2023-01-28T05:46:45.419Z,7.25
2023-01-28T05:48:47.007Z,6.90
2023-01-28T05:50:48.697Z,6.80
2023-01-28T05:52:50.309Z,6.22
2023-01-28T05:54:52.038Z,6.43
2023-01-28T05:56:53.578Z,6.35
2023-01-28T05:58:55.133Z,6.43
2023-01-28T06:00:56.758Z,6.75
2023-01-28T06:02:58.428Z,7.10
2023-01-28T06:05:00.580Z,7.40
2023-01-28T06:07:02.254Z,7.00
2023-01-28T06:09:03.982Z,6.65
2023-01-28T06:11:05.632Z,6.30
2023-01-28T06:13:07.214Z,6.47
2023-01-28T06:15:09.451Z,6.78
2023-01-28T06:17:11.103Z,9.60
2023-01-28T06:19:12.724Z,7.97
2023-01-28T06:21:14.382Z,8.10
2023-01-28T06:23:16.123Z,6.93
2023-01-28T06:25:18.294Z,7.32
2023-01-28T06:27:19.967Z,7.35
2023-01-28T06:29:21.617Z,8.05
2023-01-28T06:31:23.275Z,7.30
2023-01-28T06:33:24.942Z,7.57
2023-01-28T06:35:26.680Z,7.25
2023-01-28T06:37:28.300Z,7.55
2023-01-28T06:39:32.907Z,7.32
2023-01-28T06:41:34.593Z,8.00
2023-01-28T06:43:36.234Z,7.63
2023-01-28T06:45:37.885Z,7.20
2023-01-28T06:47:40.070Z,8.00
2023-01-28T06:49:41.884Z,7.50
2023-01-28T06:51:43.535Z,8.48
2023-01-28T06:53:46.193Z,8.82
2023-01-28T06:55:48.041Z,7.43
2023-01-28T06:57:49.669Z,8.38
2023-01-28T06:59:51.291Z,7.78
2023-01-28T07:01:52.977Z,9.40
2023-01-28T07:03:54.600Z,8.32
2023-01-28T07:05:56.217Z,8.30
2023-01-28T07:07:58.045Z,8.13
2023-01-28T07:09:59.662Z,8.45
2023-01-28T07:12:05.273Z,8.20
2023-01-28T07:14:06.972Z,9.23
2023-01-28T07:16:08.674Z,8.40
2023-01-28T07:18:10.275Z,8.93
2023-01-28T07:20:14.863Z,8.27
2023-01-28T07:22:16.724Z,8.98
2023-01-28T07:24:18.621Z,8.38
2023-01-28T07:26:20.258Z,8.73
2023-01-28T07:28:22.033Z,8.77
2023-01-28T07:30:24.319Z,9.75
2023-01-28T07:32:27.548Z,8.43
2023-01-28T07:34:29.201Z,8.35
2023-01-28T07:36:30.831Z,8.50
2023-01-28T07:38:32.388Z,8.15
2023-01-28T07:40:34.036Z,8.40
2023-01-28T07:42:35.652Z,8.68
2023-01-28T07:44:37.573Z,10.15
2023-01-28T07:46:39.231Z,9.32
2023-01-28T07:48:40.791Z,8.85
2023-01-28T07:50:42.463Z,8.23
2023-01-28T07:52:46.955Z,8.13
2023-01-28T07:54:48.658Z,8.45
2023-01-28T07:56:50.316Z,9.02
2023-01-28T07:58:51.935Z,8.50
2023-01-28T08:00:57.171Z,8.90
2023-01-28T08:03:04.527Z,9.48
2023-01-28T08:05:06.788Z,9.63
2023-01-28T08:07:08.662Z,9.13
2023-01-28T08:09:10.304Z,9.18
2023-01-28T08:11:12.204Z,8.82
2023-01-28T08:13:14.624Z,7.88
2023-01-28T08:15:16.367Z,8.70
2023-01-28T08:17:18.025Z,8.15
2023-01-28T08:19:21.858Z,8.70
2023-01-28T08:23:30.377Z,8.80
2023-01-28T08:25:32.068Z,7.88
2023-01-28T08:27:33.699Z,7.95
2023-01-28T08:29:35.248Z,9.02
2023-01-28T08:31:36.910Z,8.77
2023-01-28T08:33:38.598Z,12.88
2023-01-28T08:35:40.252Z,8.48
2023-01-28T08:37:41.827Z,7.18
2023-01-28T08:39:45.551Z,7.20
2023-01-28T08:41:47.884Z,8.38
2023-01-28T08:43:49.802Z,8.48
2023-01-28T08:45:51.530Z,7.60
2023-01-28T08:48:00.872Z,7.43
2023-01-28T08:50:02.553Z,7.07
2023-01-28T08:52:04.266Z,7.45
2023-01-28T08:54:05.905Z,7.35
2023-01-28T08:56:07.870Z,6.75
2023-01-28T08:58:17.131Z,6.60
2023-01-28T09:00:19.776Z,6.90
2023-01-28T09:02:31.021Z,7.70
2023-01-28T09:04:33.688Z,7.32
2023-01-28T09:06:35.406Z,7.55
2023-01-28T09:08:37.117Z,7.20
2023-01-28T09:10:39.248Z,8.07
2023-01-28T09:12:40.849Z,7.82
2023-01-28T09:14:42.647Z,7.53
2023-01-28T09:16:44.302Z,8.00
2023-01-28T09:18:46.116Z,7.07
2023-01-28T09:20:47.778Z,8.82
2023-01-28T09:22:49.374Z,7.80
2023-01-28T09:24:50.998Z,7.50
2023-01-28T09:26:52.635Z,9.50
2023-01-28T09:28:54.260Z,8.07
2023-01-28T09:31:07.353Z,7.32
2023-01-28T09:33:09.201Z,7.80
2023-01-28T09:35:11.876Z,7.88
2023-01-28T09:37:13.527Z,7.40
2023-01-28T09:39:15.111Z,8.35
2023-01-28T09:41:54.098Z,8.35
2023-01-28T09:44:28.179Z,7.80
2023-01-28T09:46:33.740Z,8.73
2023-01-28T09:48:39.303Z,8.57
2023-01-28T09:50:44.393Z,7.72
2023-01-28T09:52:45.966Z,7.38
2023-01-28T09:54:55.471Z,7.57
2023-01-28T09:57:07.197Z,7.90
2023-01-28T09:59:20.665Z,8.10
2023-01-28T10:02:00.956Z,8.73
2023-01-28T10:04:32.047Z,9.75
2023-01-28T10:06:49.704Z,8.45
2023-01-28T10:08:56.989Z,9.38
2023-01-28T10:11:20.176Z,9.20
2023-01-28T10:13:30.927Z,8.98
2023-01-28T10:15:53.860Z,10.10
2023-01-28T10:18:16.176Z,12.45
2023-01-28T10:20:27.184Z,11.30
2023-01-28T10:23:01.593Z,10.10
2023-01-28T10:25:07.679Z,14.00
2023-01-28T10:27:19.565Z,13.35
2023-01-28T10:29:26.235Z,14.90
2023-01-28T10:31:32.999Z,13.15
2023-01-28T10:33:40.034Z,10.90
2023-01-28T10:35:42.164Z,9.75
2023-01-28T10:37:44.112Z,9.20
2023-01-28T10:39:45.916Z,10.35
2023-01-28T10:41:57.336Z,9.50
2023-01-28T10:44:00.113Z,9.20
2023-01-28T10:46:16.877Z,9.80
2023-01-28T10:48:24.560Z,8.77
2023-01-28T10:50:29.030Z,9.35
2023-01-28T10:52:30.681Z,9.68
2023-01-28T10:54:32.251Z,9.38
2023-01-28T10:56:36.040Z,9.48
2023-01-28T11:00:58.215Z,10.27
2023-01-28T11:03:00.136Z,8.85
2023-01-28T11:05:21.130Z,9.55
2023-01-28T11:07:22.833Z,8.48
2023-01-28T11:09:30.854Z,9.25
2023-01-28T11:11:32.468Z,8.48
2023-01-28T11:13:34.062Z,8.60
2023-01-28T11:15:35.649Z,7.70
2023-01-28T11:17:38.809Z,8.02
2023-01-28T11:19:40.499Z,8.35
2023-01-28T11:21:49.246Z,9.07
2023-01-28T11:23:53.009Z,9.25
2023-01-28T11:26:02.139Z,7.65
2023-01-28T11:28:07.071Z,7.35
2023-01-28T11:30:22.902Z,8.05
2023-01-28T11:32:26.287Z,7.55
2023-01-28T11:34:30.775Z,8.25
2023-01-28T11:36:33.950Z,7.95
2023-01-28T11:38:35.657Z,9.05
2023-01-28T11:40:37.281Z,8.50
2023-01-28T11:42:38.916Z,8.73
2023-01-28T11:44:40.735Z,7.78
2023-01-28T11:47:19.842Z,8.13
2023-01-28T11:49:47.357Z,8.30
2023-01-28T11:52:02.120Z,9.27
2023-01-28T11:54:31.702Z,7.88
2023-01-28T11:57:01.444Z,8.35
2023-01-28T11:59:36.828Z,7.72
2023-01-28T12:01:57.718Z,7.18
2023-01-28T12:04:04.169Z,7.57
2023-01-28T12:06:43.176Z,7.78
2023-01-28T12:09:22.182Z,7.60
2023-01-28T12:12:11.471Z,8.25
2023-01-28T12:14:18.790Z,8.07
2023-01-28T12:16:30.041Z,8.20
2023-01-28T12:18:50.251Z,8.25
2023-01-28T12:21:49.054Z,8.30
2023-01-28T12:24:13.626Z,7.93
2023-01-28T12:26:31.426Z,7.97
2023-01-28T12:28:44.766Z,9.13
2023-01-28T12:30:59.050Z,9.00
2023-01-28T12:35:23.788Z,7.55
2023-01-28T12:37:45.872Z,8.52
2023-01-28T12:40:06.987Z,8.18
2023-01-28T12:42:20.676Z,8.73
2023-01-28T12:44:31.324Z,8.73
2023-01-28T12:46:41.480Z,9.73
2023-01-28T12:48:48.044Z,10.30
2023-01-28T12:51:16.104Z,9.43
2023-01-28T12:53:35.988Z,10.75
2023-01-28T12:55:41.677Z,9.93
2023-01-28T12:57:44.085Z,10.82
2023-01-28T12:59:46.451Z,9.57
2023-01-28T13:02:12.225Z,8.85
2023-01-28T13:04:18.031Z,9.07
2023-01-28T13:06:42.297Z,9.18
2023-01-28T13:08:43.919Z,9.60
2023-01-28T13:10:46.468Z,8.77
2023-01-28T13:12:48.642Z,9.10
2023-01-28T13:14:52.667Z,8.43
2023-01-28T13:16:55.669Z,8.73
2023-01-28T13:19:23.839Z,9.70
2023-01-28T13:21:25.447Z,8.93
2023-01-28T13:23:36.646Z,9.30
2023-01-28T13:25:49.604Z,11.73
2023-01-28T13:28:02.115Z,9.57
2023-01-28T13:30:26.206Z,9.02
2023-01-28T13:32:31.142Z,10.98
2023-01-28T13:34:44.128Z,11.32
2023-01-28T13:36:47.389Z,13.02
2023-01-28T13:38:49.670Z,12.57
2023-01-28T13:41:06.402Z,11.70
2023-01-28T13:43:38.682Z,11.38
2023-01-28T13:45:40.370Z,10.57
2023-01-28T13:47:46.122Z,10.00
2023-01-28T13:49:50.118Z,9.95
2023-01-28T13:52:10.607Z,10.05
2023-01-28T13:54:17.927Z,10.32
2023-01-28T13:56:26.158Z,11.40
2023-01-28T13:58:46.141Z,9.60
2023-01-28T14:00:56.476Z,9.18
2023-01-28T14:03:25.488Z,9.63
2023-01-28T14:05:55.327Z,10.65
2023-01-28T14:08:21.277Z,10.25
2023-01-28T14:10:41.890Z,9.90
2023-01-28T14:12:49.999Z,10.55
2023-01-28T14:15:12.481Z,9.27
2023-01-28T14:17:45.221Z,9.88
2023-01-28T14:19:47.197Z,9.95
2023-01-28T14:21:48.896Z,11.05
2023-01-28T14:23:55.626Z,9.25
2023-01-28T14:26:06.091Z,9.52
2023-01-28T14:28:09.972Z,11.52
2023-01-28T14:32:34.806Z,14.43
2023-01-28T14:34:36.872Z,12.45
2023-01-28T14:36:44.319Z,10.52
2023-01-28T14:38:46.758Z,10.23
2023-01-28T14:40:55.841Z,10.68
2023-01-28T14:42:58.261Z,11.07
2023-01-28T14:45:15.371Z,10.45
2023-01-28T14:47:28.875Z,10.73
2023-01-28T14:50:08.722Z,11.57
2023-01-28T14:52:31.779Z,12.40
2023-01-28T14:54:36.244Z,14.35
2023-01-28T14:57:17.114Z,13.50
2023-01-28T14:59:21.121Z,15.60
2023-01-28T15:01:28.069Z,14.13
2023-01-28T15:03:30.478Z,21.15
2023-01-28T15:05:32.173Z,20.77
2023-01-28T15:07:33.861Z,16.92
2023-01-28T15:09:35.461Z,19.42
2023-01-28T15:11:39.831Z,21.30
2023-01-28T15:13:46.869Z,19.33
2023-01-28T15:15:52.165Z,17.90
2023-01-28T15:17:54.421Z,15.63
2023-01-28T15:19:57.446Z,13.70
2023-01-28T15:22:01.593Z,14.57
2023-01-28T15:24:03.565Z,13.57
2023-01-28T15:26:06.928Z,12.60
2023-01-28T15:28:24.555Z,10.88
2023-01-28T15:30:28.953Z,10.68
2023-01-28T15:32:31.344Z,11.63
2023-01-28T15:34:32.900Z,9.75
2023-01-28T15:36:34.800Z,9.95
2023-01-28T15:38:36.410Z,9.60
2023-01-28T15:40:42.598Z,10.40
2023-01-28T15:42:45.905Z,9.95
2023-01-28T15:44:48.571Z,10.05
2023-01-28T15:46:50.186Z,9.48
2023-01-28T15:49:03.175Z,9.40
2023-01-28T15:51:06.714Z,10.35
2023-01-28T15:53:09.452Z,9.95
2023-01-28T15:55:29.798Z,10.05
2023-01-28T15:57:33.559Z,11.23
2023-01-28T15:59:35.161Z,9.77
2023-01-28T16:01:36.741Z,9.48
2023-01-28T16:03:42.131Z,9.18
2023-01-28T16:06:00.127Z,9.43
2023-01-28T16:08:09.883Z,11.50
2023-01-28T16:10:22.032Z,9.75
2023-01-28T16:12:24.056Z,10.75
2023-01-28T16:14:30.432Z,10.10
2023-01-28T16:16:36.868Z,10.43
2023-01-28T16:18:43.567Z,11.05
2023-01-28T16:20:48.351Z,10.07
2023-01-28T16:22:50.552Z,10.07
2023-01-28T16:24:53.457Z,10.63
2023-01-28T16:27:07.238Z,9.90
2023-01-28T16:29:17.181Z,10.40
2023-01-28T16:31:19.697Z,9.23
2023-01-28T16:33:22.346Z,10.20
2023-01-28T16:35:38.152Z,9.00
2023-01-28T16:37:49.660Z,8.80
2023-01-28T16:39:51.307Z,9.80
2023-01-28T16:41:53.666Z,7.88
2023-01-28T16:43:55.295Z,8.70
2023-01-28T16:45:56.856Z,8.18
2023-01-28T16:47:58.590Z,8.35
2023-01-28T16:50:00.303Z,9.30
2023-01-28T16:52:02.670Z,9.50
2023-01-28T16:54:05.127Z,9.98
2023-01-28T16:56:08.320Z,9.98
2023-01-28T16:58:12.844Z,10.43
2023-01-28T17:00:19.199Z,11.10
2023-01-28T17:02:20.786Z,10.70
2023-01-28T17:04:22.502Z,11.77
2023-01-28T17:06:24.058Z,12.35
2023-01-28T17:08:25.861Z,12.13
2023-01-28T17:10:27.450Z,11.02
2023-01-28T17:12:29.064Z,9.95
2023-01-28T17:14:30.701Z,10.27
2023-01-28T17:16:32.299Z,11.48
2023-01-28T17:18:33.953Z,11.80
2023-01-28T17:20:40.216Z,11.75
2023-01-28T17:22:41.921Z,10.35
2023-01-28T17:24:43.519Z,9.93
2023-01-28T17:26:45.096Z,10.57
2023-01-28T17:28:52.832Z,10.18
2023-01-28T17:30:54.463Z,10.07
2023-01-28T17:32:56.052Z,8.45
2023-01-28T17:34:57.731Z,8.65
2023-01-28T17:36:59.360Z,8.63
2023-01-28T17:39:00.951Z,11.30
2023-01-28T17:41:07.489Z,11.75
2023-01-28T17:43:09.112Z,13.95
2023-01-28T17:45:10.800Z,13.88
2023-01-28T17:47:12.392Z,13.90
2023-01-28T17:49:14.166Z,13.77
2023-01-28T17:51:19.084Z,15.98
2023-01-28T17:53:20.781Z,15.23
2023-01-28T17:55:23.570Z,14.63
2023-01-28T17:57:25.363Z,16.80
2023-01-28T17:59:27.014Z,18.67
2023-01-28T18:01:28.805Z,15.60
2023-01-28T18:03:30.348Z,17.00
2023-01-28T18:05:31.980Z,13.95
2023-01-28T18:07:33.766Z,14.88
2023-01-28T18:09:35.331Z,15.63
2023-01-28T18:11:37.174Z,12.32
2023-01-28T18:13:39.667Z,11.65
2023-01-28T18:15:41.225Z,11.70
2023-01-28T18:17:42.980Z,14.10
2023-01-28T18:19:44.583Z,12.02
2023-01-28T18:21:53.054Z,13.65
2023-01-28T18:23:55.260Z,15.05
2023-01-28T18:25:58.327Z,15.35
2023-01-28T18:27:59.974Z,15.20
2023-01-28T18:30:01.627Z,14.75
2023-01-28T18:32:04.573Z,15.13
2023-01-28T18:34:06.160Z,16.73
2023-01-28T18:36:09.164Z,16.60
2023-01-28T18:38:11.607Z,17.37
2023-01-28T18:40:13.555Z,16.27
2023-01-28T18:42:15.362Z,15.82
2023-01-28T18:44:16.997Z,15.60
2023-01-28T18:46:18.789Z,14.85
2023-01-28T18:48:20.676Z,15.30
2023-01-28T18:50:22.284Z,14.65
2023-01-28T18:52:23.893Z,14.10
2023-01-28T18:54:25.730Z,12.18
2023-01-28T18:56:28.590Z,12.77
2023-01-28T18:58:30.660Z,12.30
2023-01-28T19:00:32.497Z,11.40
2023-01-28T19:02:34.167Z,11.38
2023-01-28T19:04:35.841Z,11.77
2023-01-28T19:06:37.637Z,12.60
2023-01-28T19:08:39.217Z,10.18
2023-01-28T19:10:41.026Z,10.20
2023-01-28T19:12:42.584Z,10.85
2023-01-28T19:14:44.187Z,10.38
2023-01-28T19:16:46.014Z,11.23
2023-01-28T19:18:55.586Z,11.23
2023-01-28T19:21:05.945Z,11.60
2023-01-28T19:23:07.997Z,12.30
2023-01-28T19:25:10.083Z,11.93
2023-01-28T19:27:11.710Z,11.85
2023-01-28T19:29:15.945Z,10.90
2023-01-28T19:31:19.307Z,11.30
2023-01-28T19:33:20.898Z,10.82
2023-01-28T19:35:24.248Z,10.25
2023-01-28T19:37:25.811Z,10.70
2023-01-28T19:39:27.471Z,11.00
2023-01-28T19:41:29.392Z,11.02
2023-01-28T19:43:31.139Z,9.85
2023-01-28T19:45:32.727Z,10.55
2023-01-28T19:47:34.358Z,9.80
2023-01-28T19:49:35.952Z,10.40
2023-01-28T19:51:37.572Z,11.13
2023-01-28T19:53:40.500Z,10.07
2023-01-28T19:55:42.332Z,11.00
2023-01-28T19:57:44.805Z,9.88
2023-01-28T19:59:46.502Z,10.45
2023-01-28T20:01:48.087Z,8.95
2023-01-28T20:03:55.285Z,9.57
2023-01-28T20:06:00.726Z,9.95
2023-01-28T20:08:02.607Z,9.93
2023-01-28T20:10:04.481Z,9.52
2023-01-28T20:12:06.291Z,10.77
2023-01-28T20:14:08.119Z,10.77
2023-01-28T20:16:31.517Z,10.30
2023-01-28T20:18:33.786Z,11.18
2023-01-28T20:20:35.434Z,11.82
2023-01-28T20:22:39.635Z,10.38
2023-01-28T20:24:41.299Z,9.93
2023-01-28T20:26:43.805Z,10.40
2023-01-28T20:28:45.333Z,10.15
2023-01-28T20:30:47.156Z,8.98
2023-01-28T20:32:48.795Z,9.32
2023-01-28T20:34:52.024Z,9.70
2023-01-28T20:36:53.585Z,9.82
2023-01-28T20:38:55.335Z,11.35
2023-01-28T20:40:56.979Z,10.07
2023-01-28T20:42:58.641Z,10.07
2023-01-28T20:45:00.211Z,10.32
2023-01-28T20:47:02.657Z,9.55
2023-01-28T20:49:06.752Z,10.00
2023-01-28T20:51:13.731Z,9.77
2023-01-28T20:53:15.314Z,9.68
2023-01-28T20:55:17.023Z,10.60
2023-01-28T20:57:18.656Z,11.75
2023-01-28T20:59:20.605Z,10.27
2023-01-28T21:01:27.732Z,9.45
2023-01-28T21:03:29.362Z,10.07
2023-01-28T21:05:30.977Z,11.20
2023-01-28T21:07:32.713Z,10.38
2023-01-28T21:09:34.276Z,11.07
2023-01-28T21:11:35.954Z,10.93
2023-01-28T21:13:37.592Z,10.48
2023-01-28T21:15:39.292Z,10.05
2023-01-28T21:17:41.052Z,11.38
2023-01-28T21:19:42.825Z,10.55
2023-01-28T21:21:45.194Z,11.02
2023-01-28T21:23:47.232Z,10.95
2023-01-28T21:25:51.051Z,10.55
2023-01-28T21:27:53.995Z,9.98
2023-01-28T21:29:55.633Z,11.10
2023-01-28T21:31:57.281Z,11.20
2023-01-28T21:34:01.296Z,10.73
2023-01-28T21:36:09.250Z,12.43
2023-01-28T21:38:11.602Z,12.13
2023-01-28T21:40:13.491Z,12.60
2023-01-28T21:42:15.835Z,12.23
2023-01-28T21:44:17.525Z,11.52
2023-01-28T21:46:23.349Z,11.25
2023-01-28T21:48:25.718Z,12.40
2023-01-28T21:50:27.545Z,12.07
2023-01-28T21:52:29.104Z,11.77
2023-01-28T21:54:30.772Z,12.02
2023-01-28T21:56:32.774Z,11.57
2023-01-28T21:58:54.659Z,10.88
2023-01-28T22:00:56.286Z,11.27
2023-01-28T22:02:58.006Z,11.20
2023-01-28T22:04:59.574Z,10.52
2023-01-28T22:07:02.790Z,11.32
2023-01-28T22:09:04.624Z,11.13
2023-01-28T22:11:07.585Z,10.43
2023-01-28T22:13:09.215Z,11.00
2023-01-28T22:15:11.042Z,11.30
2023-01-28T22:17:12.763Z,12.20
2023-01-28T22:19:14.720Z,10.68
2023-01-28T22:21:16.426Z,10.35
2023-01-28T22:23:18.012Z,11.52
2023-01-28T22:25:19.649Z,12.20
2023-01-28T22:27:21.309Z,11.95
2023-01-28T22:29:23.899Z,11.95
2023-01-28T22:31:25.706Z,11.63
2023-01-28T22:33:27.306Z,10.82
2023-01-28T22:35:28.976Z,11.70
2023-01-28T22:37:31.501Z,11.73
2023-01-28T22:39:33.226Z,11.75
2023-01-28T22:41:34.961Z,11.85
2023-01-28T22:43:36.788Z,11.32
2023-01-28T22:45:38.435Z,10.98
2023-01-28T22:47:39.966Z,11.63
2023-01-28T22:49:41.600Z,9.65
2023-01-28T22:51:43.244Z,10.27
2023-01-28T22:53:45.627Z,10.23
2023-01-28T22:55:51.313Z,11.63
2023-01-28T22:57:52.972Z,10.60
2023-01-28T23:00:00.520Z,11.07
2023-01-28T23:02:02.441Z,10.98
2023-01-28T23:04:04.098Z,9.70
2023-01-28T23:06:05.893Z,10.25
2023-01-28T23:08:10.864Z,11.02
2023-01-28T23:10:12.620Z,11.48
2023-01-28T23:12:14.219Z,10.40
2023-01-28T23:14:34.192Z,11.27
2023-01-28T23:16:54.233Z,9.68
2023-01-28T23:19:14.341Z,10.75
2023-01-28T23:21:39.285Z,10.80
2023-01-28T23:23:59.445Z,10.52
2023-01-28T23:26:01.235Z,11.05
2023-01-28T23:28:02.805Z,10.15
2023-01-28T23:30:05.825Z,10.48
2023-01-28T23:32:09.978Z,10.82
2023-01-28T23:34:11.787Z,10.93
2023-01-28T23:36:13.355Z,11.23
2023-01-28T23:38:15.335Z,10.93
2023-01-28T23:40:17.518Z,11.80
2023-01-28T23:42:20.997Z,12.10
2023-01-28T23:44:26.545Z,11.95
2023-01-28T23:46:38.920Z,12.48
2023-01-28T23:48:42.396Z,12.52
2023-01-28T23:50:43.999Z,11.60
2023-01-28T23:52:45.613Z,13.23
2023-01-28T23:54:47.261Z,12.43
2023-01-28T23:56:48.997Z,10.65
2023-01-28T23:58:50.828Z,12.20
